createdAt,value
2018-06-16T00:01:03.711Z,17.90
2018-06-16T00:02:39.298Z,17.88
2018-06-16T00:04:14.930Z,17.91
2018-06-16T00:05:50.568Z,17.84
2018-06-16T00:07:26.143Z,17.88
2018-06-16T00:09:01.730Z,17.79
2018-06-16T00:10:37.270Z,17.67
2018-06-16T00:12:12.885Z,17.53
2018-06-16T00:13:48.478Z,17.56
2018-06-16T00:15:24.060Z,17.72
2018-06-16T00:16:59.684Z,17.83
2018-06-16T00:18:35.279Z,17.84
2018-06-16T00:20:10.833Z,17.84
2018-06-16T00:21:46.410Z,17.75
2018-06-16T00:23:22.661Z,17.62
2018-06-16T00:24:59.306Z,17.71
2018-06-16T00:26:34.918Z,17.63
2018-06-16T00:28:10.510Z,17.71
2018-06-16T00:29:46.228Z,17.83
2018-06-16T00:31:21.846Z,17.99
2018-06-16T00:32:57.453Z,17.99
2018-06-16T00:34:33.077Z,17.95
2018-06-16T00:36:08.868Z,17.94
2018-06-16T00:37:44.400Z,17.92
2018-06-16T00:39:19.993Z,17.92
2018-06-16T00:40:55.611Z,17.94
2018-06-16T00:42:31.184Z,17.93
2018-06-16T00:44:06.830Z,17.92
2018-06-16T00:45:42.385Z,17.85
2018-06-16T00:47:18.121Z,17.88
2018-06-16T00:48:53.692Z,17.94
2018-06-16T00:50:29.438Z,17.90
2018-06-16T00:52:05.007Z,17.79
2018-06-16T00:53:40.615Z,17.73
2018-06-16T00:55:16.253Z,17.73
2018-06-16T00:57:02.921Z,17.62
2018-06-16T00:58:38.862Z,17.63
2018-06-16T01:00:15.216Z,17.64
2018-06-16T01:01:50.841Z,17.68
2018-06-16T01:03:26.469Z,17.61
2018-06-16T01:05:02.067Z,17.64
2018-06-16T01:06:37.720Z,17.65
2018-06-16T01:08:13.398Z,17.65
2018-06-16T01:09:49.037Z,17.71
2018-06-16T01:11:24.655Z,17.68
2018-06-16T01:13:00.309Z,17.72
2018-06-16T01:14:35.901Z,17.60
2018-06-16T01:16:11.759Z,17.66
2018-06-16T01:17:47.350Z,17.71
2018-06-16T01:19:22.980Z,17.64
2018-06-16T01:20:58.603Z,17.69
2018-06-16T01:22:34.182Z,17.67
2018-06-16T01:24:09.876Z,17.59
2018-06-16T01:25:45.545Z,17.69
2018-06-16T01:27:21.116Z,17.67
2018-06-16T01:28:56.733Z,17.74
2018-06-16T01:30:32.386Z,17.78
2018-06-16T01:32:07.959Z,17.83
2018-06-16T01:33:43.618Z,17.77
2018-06-16T01:35:19.230Z,17.76
2018-06-16T01:36:54.832Z,17.63
2018-06-16T01:38:30.412Z,17.69
2018-06-16T01:40:06.060Z,17.70
2018-06-16T01:41:41.701Z,17.62
2018-06-16T01:43:17.313Z,17.57
2018-06-16T01:44:52.980Z,17.55
2018-06-16T01:46:28.599Z,17.53
2018-06-16T01:48:04.440Z,17.57
2018-06-16T01:49:40.031Z,17.60
2018-06-16T01:51:15.613Z,17.62
2018-06-16T01:52:51.218Z,17.67
2018-06-16T01:54:26.886Z,17.65
2018-06-16T01:56:02.446Z,17.69
2018-06-16T01:57:38.053Z,17.72
2018-06-16T01:59:13.729Z,17.68
2018-06-16T02:00:49.362Z,17.69
2018-06-16T02:02:24.938Z,17.69
2018-06-16T02:04:00.620Z,17.63
2018-06-16T02:05:36.242Z,17.60
2018-06-16T02:07:11.863Z,17.50
2018-06-16T02:08:48.057Z,17.49
2018-06-16T02:10:23.645Z,17.45
2018-06-16T02:11:59.266Z,17.39
2018-06-16T02:13:34.823Z,17.48
2018-06-16T02:15:10.445Z,17.50
2018-06-16T02:16:46.023Z,17.50
2018-06-16T02:18:21.641Z,17.56
2018-06-16T02:19:57.256Z,17.56
2018-06-16T02:21:32.909Z,17.60
2018-06-16T02:23:08.480Z,17.73
2018-06-16T02:24:44.098Z,17.76
2018-06-16T02:26:19.663Z,17.70
2018-06-16T02:27:55.260Z,17.63
2018-06-16T02:29:31.925Z,17.54
2018-06-16T02:31:07.550Z,17.54
2018-06-16T02:32:43.148Z,17.61
2018-06-16T02:34:18.723Z,17.60
2018-06-16T02:35:54.956Z,17.58
2018-06-16T02:37:30.617Z,17.63
2018-06-16T02:39:08.621Z,17.60
2018-06-16T02:40:44.277Z,17.68
2018-06-16T02:42:19.898Z,17.57
2018-06-16T02:43:55.532Z,17.56
2018-06-16T02:45:31.178Z,17.51
2018-06-16T02:47:06.816Z,17.58
2018-06-16T02:48:42.480Z,17.62
2018-06-16T02:50:18.258Z,17.64
2018-06-16T02:51:53.748Z,17.62
2018-06-16T02:53:29.331Z,17.67
2018-06-16T02:55:04.985Z,17.62
2018-06-16T02:56:40.642Z,17.63
2018-06-16T02:58:16.208Z,17.67
2018-06-16T02:59:52.013Z,17.70
2018-06-16T03:01:27.677Z,17.69
2018-06-16T03:03:03.290Z,17.74
2018-06-16T03:04:38.910Z,17.71
2018-06-16T03:06:14.477Z,17.68
2018-06-16T03:07:50.077Z,17.68
2018-06-16T03:09:25.649Z,17.57
2018-06-16T03:11:01.311Z,17.62
2018-06-16T03:12:36.950Z,17.46
2018-06-16T03:14:12.578Z,17.47
2018-06-16T03:15:48.205Z,17.41
2018-06-16T03:17:23.852Z,17.47
2018-06-16T03:18:59.449Z,17.45
2018-06-16T03:20:35.183Z,17.46
2018-06-16T03:22:10.809Z,17.52
2018-06-16T03:23:46.400Z,17.54
2018-06-16T03:25:22.025Z,17.51
2018-06-16T03:26:57.644Z,17.49
2018-06-16T03:28:33.440Z,17.49
2018-06-16T03:30:09.028Z,17.53
2018-06-16T03:31:44.648Z,17.61
2018-06-16T03:33:20.404Z,17.67
2018-06-16T03:34:56.013Z,17.64
2018-06-16T03:36:31.601Z,17.64
2018-06-16T03:38:07.283Z,17.67
2018-06-16T03:39:44.014Z,17.81
2018-06-16T03:41:19.594Z,17.77
2018-06-16T03:42:55.236Z,17.76
2018-06-16T03:44:30.799Z,17.77
2018-06-16T03:46:06.437Z,17.76
2018-06-16T03:47:42.043Z,17.74
2018-06-16T03:49:18.061Z,17.75
2018-06-16T03:50:53.653Z,17.77
2018-06-16T03:52:29.542Z,17.77
2018-06-16T03:54:05.613Z,17.75
2018-06-16T03:55:41.220Z,17.67
2018-06-16T03:57:16.940Z,17.55
2018-06-16T03:58:52.554Z,17.67
2018-06-16T04:00:28.216Z,17.74
2018-06-16T04:02:03.784Z,17.71
2018-06-16T04:03:39.404Z,17.75
2018-06-16T04:05:15.038Z,17.75
2018-06-16T04:06:50.721Z,17.74
2018-06-16T04:08:26.261Z,17.67
2018-06-16T04:10:01.826Z,17.72
2018-06-16T04:11:37.396Z,17.70
2018-06-16T04:13:13.066Z,17.75
2018-06-16T04:14:49.028Z,17.78
2018-06-16T04:16:26.696Z,17.77
2018-06-16T04:18:02.299Z,17.85
2018-06-16T04:19:37.970Z,17.85
2018-06-16T04:21:13.657Z,17.93
2018-06-16T04:22:49.260Z,17.96
2018-06-16T04:24:24.820Z,18.02
2018-06-16T04:26:00.441Z,17.94
2018-06-16T04:27:36.099Z,17.94
2018-06-16T04:29:11.723Z,17.90
2018-06-16T04:30:47.341Z,17.90
2018-06-16T04:32:22.913Z,17.97
2018-06-16T04:33:58.547Z,18.02
2018-06-16T04:35:34.255Z,17.99
2018-06-16T04:37:09.837Z,18.06
2018-06-16T04:38:45.449Z,18.07
2018-06-16T04:40:21.010Z,18.09
2018-06-16T04:41:56.681Z,18.09
2018-06-16T04:43:32.281Z,18.13
2018-06-16T04:45:07.922Z,18.09
2018-06-16T04:46:43.498Z,18.14
2018-06-16T04:48:19.317Z,18.17
2018-06-16T04:49:54.873Z,18.21
2018-06-16T04:51:30.523Z,18.19
2018-06-16T04:53:06.221Z,18.15
2018-06-16T04:54:41.738Z,18.20
2018-06-16T04:56:17.316Z,18.23
2018-06-16T04:57:53.125Z,18.21
2018-06-16T04:59:28.733Z,18.28
2018-06-16T05:01:04.369Z,18.26
2018-06-16T05:02:39.980Z,18.32
2018-06-16T05:04:15.569Z,18.33
2018-06-16T05:05:51.207Z,18.25
2018-06-16T05:07:26.797Z,18.32
2018-06-16T05:09:02.468Z,18.39
2018-06-16T05:10:39.170Z,18.42
2018-06-16T05:12:14.805Z,18.42
2018-06-16T05:13:50.369Z,18.38
2018-06-16T05:15:25.967Z,18.29
2018-06-16T05:17:01.638Z,18.35
2018-06-16T05:18:37.156Z,18.35
2018-06-16T05:20:12.770Z,18.48
2018-06-16T05:21:48.335Z,18.54
2018-06-16T05:23:24.305Z,18.50
2018-06-16T05:24:59.879Z,18.45
2018-06-16T05:26:35.560Z,18.47
2018-06-16T05:28:11.173Z,18.44
2018-06-16T05:29:46.732Z,18.47
2018-06-16T05:31:22.458Z,18.54
2018-06-16T05:33:04.204Z,18.55
2018-06-16T05:34:45.322Z,18.62
2018-06-16T05:36:23.782Z,18.68
2018-06-16T05:38:04.319Z,18.76
2018-06-16T05:41:14.390Z,18.76
2018-06-16T05:42:52.743Z,18.75
2018-06-16T05:44:33.076Z,18.81
2018-06-16T05:46:12.652Z,18.79
2018-06-16T05:48:05.852Z,18.67
2018-06-16T05:50:07.107Z,18.69
2018-06-16T05:54:02.417Z,18.87
2018-06-16T05:56:08.727Z,18.88
2018-06-16T05:58:01.357Z,18.98
2018-06-16T05:59:40.685Z,19.07
2018-06-16T06:01:17.598Z,19.16
2018-06-16T06:02:59.991Z,19.19
2018-06-16T06:04:38.152Z,19.17
2018-06-16T06:06:18.680Z,19.11
2018-06-16T06:08:00.254Z,19.18
2018-06-16T06:09:39.666Z,19.29
2018-06-16T06:11:22.593Z,19.33
2018-06-16T06:12:59.216Z,19.32
2018-06-16T06:14:39.596Z,19.34
2018-06-16T06:16:16.900Z,19.41
2018-06-16T06:17:58.097Z,19.47
2018-06-16T06:19:36.015Z,19.50
2018-06-16T06:21:13.385Z,19.50
2018-06-16T06:22:53.362Z,19.48
2018-06-16T06:24:41.937Z,19.39
2018-06-16T06:26:53.298Z,19.32
2018-06-16T06:28:34.725Z,19.46
2018-06-16T06:30:12.953Z,19.48
2018-06-16T06:31:49.131Z,19.46
2018-06-16T06:33:25.414Z,19.53
2018-06-16T06:35:01.348Z,19.53
2018-06-16T06:36:37.305Z,19.53
2018-06-16T06:38:12.915Z,19.60
2018-06-16T06:39:48.501Z,19.55
2018-06-16T06:41:24.382Z,19.44
2018-06-16T06:43:00.017Z,19.43
2018-06-16T06:44:35.613Z,19.47
2018-06-16T06:46:11.281Z,19.49
2018-06-16T06:47:46.947Z,19.48
2018-06-16T06:49:22.572Z,19.49
2018-06-16T06:50:58.206Z,19.54
2018-06-16T06:52:33.802Z,19.52
2018-06-16T06:54:09.733Z,19.57
2018-06-16T06:55:45.334Z,19.64
2018-06-16T06:57:22.001Z,19.71
2018-06-16T06:58:57.650Z,19.80
2018-06-16T07:00:33.406Z,19.73
2018-06-16T07:02:09.244Z,19.71
2018-06-16T07:03:44.813Z,19.86
2018-06-16T07:05:20.444Z,19.72
2018-06-16T07:06:56.071Z,19.74
2018-06-16T07:08:31.720Z,19.76
2018-06-16T07:10:07.291Z,19.90
2018-06-16T07:11:43.787Z,19.91
2018-06-16T07:13:19.386Z,20.00
2018-06-16T07:14:54.965Z,20.09
2018-06-16T07:16:30.562Z,20.12
2018-06-16T07:18:06.369Z,20.31
2018-06-16T07:19:42.016Z,20.15
2018-06-16T07:21:17.675Z,20.28
2018-06-16T07:22:53.621Z,20.33
2018-06-16T07:24:29.276Z,20.42
2018-06-16T07:26:04.900Z,20.29
2018-06-16T07:27:40.577Z,20.27
2018-06-16T07:29:16.273Z,20.24
2018-06-16T07:30:51.802Z,20.28
2018-06-16T07:32:27.441Z,20.25
2018-06-16T07:34:03.088Z,20.28
2018-06-16T07:35:39.096Z,20.37
2018-06-16T07:37:14.989Z,20.32
2018-06-16T07:38:50.660Z,20.36
2018-06-16T07:40:27.239Z,20.31
2018-06-16T07:42:02.826Z,20.29
2018-06-16T07:43:38.478Z,20.30
2018-06-16T07:45:14.155Z,20.42
2018-06-16T07:46:49.766Z,20.44
2018-06-16T07:48:25.398Z,20.40
2018-06-16T07:50:01.073Z,20.35
2018-06-16T07:51:36.973Z,20.37
2018-06-16T07:53:12.609Z,20.33
2018-06-16T07:54:48.284Z,20.44
2018-06-16T07:56:23.995Z,20.43
2018-06-16T07:57:59.680Z,20.49
2018-06-16T07:59:35.702Z,20.46
2018-06-16T08:01:11.385Z,20.47
2018-06-16T08:02:52.118Z,20.53
2018-06-16T08:04:31.893Z,20.53
2018-06-16T08:06:09.364Z,20.62
2018-06-16T08:07:51.110Z,20.65
2018-06-16T08:09:39.493Z,20.75
2018-06-16T08:13:11.903Z,20.81
2018-06-16T08:14:48.389Z,20.96
2018-06-16T08:16:24.258Z,21.07
2018-06-16T08:18:06.623Z,21.16
2018-06-16T08:19:42.454Z,21.19
2018-06-16T08:21:19.042Z,21.30
2018-06-16T08:22:56.402Z,21.36
2018-06-16T08:24:32.933Z,21.36
2018-06-16T08:26:10.578Z,21.45
2018-06-16T08:27:46.857Z,21.40
2018-06-16T08:29:23.010Z,21.41
2018-06-16T08:30:59.786Z,21.66
2018-06-16T08:32:35.459Z,21.77
2018-06-16T08:34:12.850Z,21.83
2018-06-16T08:35:49.285Z,21.91
2018-06-16T08:37:30.182Z,21.84
2018-06-16T08:39:14.268Z,22.04
2018-06-16T08:40:51.035Z,22.26
2018-06-16T08:42:35.238Z,22.37
2018-06-16T08:44:11.536Z,22.34
2018-06-16T08:45:48.246Z,22.36
2018-06-16T08:47:24.374Z,22.46
2018-06-16T08:49:00.905Z,22.48
2018-06-16T08:50:37.821Z,22.33
2018-06-16T08:52:15.447Z,22.45
2018-06-16T08:53:51.640Z,22.69
2018-06-16T08:55:27.458Z,22.77
2018-06-16T08:57:03.010Z,22.73
2018-06-16T08:58:38.721Z,22.90
2018-06-16T09:00:14.697Z,23.01
2018-06-16T09:01:50.475Z,23.22
2018-06-16T09:03:33.165Z,23.24
2018-06-16T09:05:10.123Z,23.37
2018-06-16T09:06:45.816Z,23.52
2018-06-16T09:08:21.710Z,23.26
2018-06-16T09:09:57.548Z,23.33
2018-06-16T09:11:33.515Z,23.31
2018-06-16T09:13:09.143Z,23.43
2018-06-16T09:14:44.728Z,23.56
2018-06-16T09:16:20.350Z,23.37
2018-06-16T09:17:56.728Z,23.41
2018-06-16T09:19:34.507Z,23.65
2018-06-16T09:21:10.138Z,23.75
2018-06-16T09:22:45.791Z,24.07
2018-06-16T09:24:21.672Z,24.14
2018-06-16T09:25:58.202Z,24.35
2018-06-16T09:27:33.883Z,24.56
2018-06-16T09:29:09.828Z,24.64
2018-06-16T09:30:45.442Z,24.62
2018-06-16T09:32:21.318Z,24.56
2018-06-16T09:33:57.183Z,24.45
2018-06-16T09:35:33.313Z,24.25
2018-06-16T09:37:09.016Z,24.30
2018-06-16T09:38:44.692Z,24.31
2018-06-16T09:40:20.314Z,24.41
2018-06-16T09:41:55.881Z,24.12
2018-06-16T09:43:31.497Z,24.27
2018-06-16T09:45:07.182Z,24.50
2018-06-16T09:46:43.149Z,24.27
2018-06-16T09:48:18.842Z,24.50
2018-06-16T09:49:54.583Z,24.83
2018-06-16T09:51:30.275Z,25.00
2018-06-16T09:53:06.351Z,25.32
2018-06-16T09:54:42.031Z,25.43
2018-06-16T09:56:17.686Z,25.52
2018-06-16T09:57:53.352Z,25.49
2018-06-16T09:59:28.992Z,25.73
2018-06-16T10:01:05.166Z,25.67
2018-06-16T10:02:40.811Z,25.59
2018-06-16T10:04:16.462Z,25.74
2018-06-16T10:05:52.111Z,25.64
2018-06-16T10:07:28.145Z,25.77
2018-06-16T10:09:05.161Z,25.87
2018-06-16T10:10:41.297Z,25.98
2018-06-16T10:12:16.920Z,25.73
2018-06-16T10:13:52.541Z,25.63
2018-06-16T10:15:28.126Z,25.61
2018-06-16T10:17:04.325Z,25.63
2018-06-16T10:18:39.961Z,25.67
2018-06-16T10:20:15.582Z,25.51
2018-06-16T10:21:51.174Z,25.53
2018-06-16T10:23:27.057Z,25.64
2018-06-16T10:25:02.670Z,25.74
2018-06-16T10:26:39.045Z,25.53
2018-06-16T10:28:16.451Z,25.53
2018-06-16T10:29:52.244Z,25.81
2018-06-16T10:31:28.032Z,26.03
2018-06-16T10:33:03.655Z,26.03
2018-06-16T10:34:42.789Z,26.25
2018-06-16T10:36:18.437Z,26.43
2018-06-16T10:37:53.984Z,26.29
2018-06-16T10:39:30.254Z,26.64
2018-06-16T10:41:05.819Z,26.81
2018-06-16T10:42:41.388Z,26.63
2018-06-16T10:44:17.001Z,26.83
2018-06-16T10:45:52.600Z,26.81
2018-06-16T10:47:28.608Z,26.98
2018-06-16T10:49:04.177Z,27.01
2018-06-16T10:50:39.749Z,27.19
2018-06-16T10:52:15.350Z,27.08
2018-06-16T10:53:54.134Z,27.22
2018-06-16T10:55:30.664Z,27.37
2018-06-16T10:57:06.234Z,27.70
2018-06-16T10:58:41.831Z,27.89
2018-06-16T11:00:17.561Z,28.14
2018-06-16T11:01:53.161Z,28.29
2018-06-16T11:03:29.667Z,28.44
2018-06-16T11:05:05.254Z,28.51
2018-06-16T11:06:40.853Z,28.50
2018-06-16T11:10:22.166Z,28.35
2018-06-16T11:12:02.520Z,28.63
2018-06-16T11:13:40.179Z,28.66
2018-06-16T11:15:16.379Z,28.90
2018-06-16T11:16:52.213Z,28.95
2018-06-16T11:18:27.930Z,29.21
2018-06-16T11:20:03.557Z,29.05
2018-06-16T11:21:40.219Z,29.15
2018-06-16T11:23:16.025Z,29.22
2018-06-16T11:24:53.839Z,29.00
2018-06-16T11:26:29.398Z,29.08
2018-06-16T11:28:05.034Z,28.98
2018-06-16T11:29:40.639Z,28.86
2018-06-16T11:31:17.169Z,28.79
2018-06-16T11:32:57.298Z,28.96
2018-06-16T11:34:33.705Z,28.97
2018-06-16T11:36:09.306Z,28.92
2018-06-16T11:37:45.658Z,29.18
2018-06-16T11:39:21.227Z,29.42
2018-06-16T11:40:57.305Z,29.22
2018-06-16T11:42:32.790Z,29.61
2018-06-16T11:44:09.145Z,29.74
2018-06-16T11:45:45.498Z,29.52
2018-06-16T11:47:23.234Z,29.30
2018-06-16T11:48:58.786Z,29.42
2018-06-16T11:50:36.486Z,29.55
2018-06-16T11:52:13.230Z,29.81
2018-06-16T11:53:48.960Z,29.85
2018-06-16T11:55:25.494Z,29.85
2018-06-16T11:57:01.973Z,29.88
2018-06-16T11:58:38.189Z,29.88
2018-06-16T12:00:13.838Z,29.78
2018-06-16T12:01:49.615Z,29.79
2018-06-16T12:03:25.174Z,29.42
2018-06-16T12:05:00.801Z,29.43
2018-06-16T12:08:41.733Z,29.14
2018-06-16T12:10:19.400Z,28.98
2018-06-16T12:11:56.153Z,28.74
2018-06-16T12:13:32.609Z,28.47
2018-06-16T12:15:09.208Z,28.52
2018-06-16T12:16:48.791Z,28.81
2018-06-16T12:18:26.751Z,29.08
2018-06-16T12:20:03.885Z,29.35
2018-06-16T12:21:42.079Z,28.94
2018-06-16T12:23:18.239Z,28.94
2018-06-16T12:24:55.252Z,29.28
2018-06-16T12:26:32.031Z,29.52
2018-06-16T12:28:08.525Z,29.76
2018-06-16T12:29:46.934Z,30.00
2018-06-16T12:31:24.861Z,29.79
2018-06-16T12:33:03.313Z,29.94
2018-06-16T12:34:44.486Z,29.70
2018-06-16T12:36:25.834Z,29.47
2018-06-16T12:38:01.534Z,29.61
2018-06-16T12:39:37.100Z,29.69
2018-06-16T12:41:13.549Z,29.89
2018-06-16T12:42:49.214Z,29.97
2018-06-16T12:44:25.862Z,30.26
2018-06-16T12:46:03.163Z,30.22
2018-06-16T12:47:44.521Z,30.27
2018-06-16T12:49:20.344Z,30.19
2018-06-16T12:51:00.767Z,30.11
2018-06-16T12:52:45.395Z,30.12
2018-06-16T12:54:20.957Z,30.19
2018-06-16T12:55:58.626Z,30.41
2018-06-16T12:57:35.613Z,30.18
2018-06-16T12:59:11.708Z,30.22
2018-06-16T13:00:47.883Z,30.22
2018-06-16T13:02:23.594Z,30.30
2018-06-16T13:04:00.967Z,30.25
2018-06-16T13:05:36.624Z,30.46
2018-06-16T13:07:12.721Z,30.39
2018-06-16T13:08:50.172Z,30.52
2018-06-16T13:10:25.949Z,30.23
2018-06-16T13:12:03.169Z,30.27
2018-06-16T13:13:42.497Z,30.29
2018-06-16T13:15:18.527Z,30.24
2018-06-16T13:16:58.617Z,30.35
2018-06-16T13:18:34.525Z,30.25
2018-06-16T13:20:10.050Z,30.41
2018-06-16T13:21:45.644Z,30.31
2018-06-16T13:23:21.206Z,30.31
2018-06-16T13:24:57.096Z,30.35
2018-06-16T13:26:33.053Z,30.30
2018-06-16T13:28:11.043Z,30.47
2018-06-16T13:31:52.991Z,30.50
2018-06-16T13:33:28.605Z,30.59
2018-06-16T13:35:04.265Z,30.80
2018-06-16T13:36:39.793Z,30.91
2018-06-16T13:38:15.349Z,30.81
2018-06-16T13:39:51.038Z,30.58
2018-06-16T13:41:27.645Z,30.47
2018-06-16T13:43:04.936Z,30.14
2018-06-16T13:44:42.948Z,29.98
2018-06-16T13:46:18.561Z,29.58
2018-06-16T13:47:54.441Z,29.15
2018-06-16T13:49:31.097Z,29.65
2018-06-16T13:51:06.879Z,29.88
2018-06-16T13:52:42.455Z,29.54
2018-06-16T13:54:21.988Z,29.50
2018-06-16T13:55:57.569Z,29.49
2018-06-16T13:57:33.387Z,29.71
2018-06-16T13:59:09.705Z,29.56
2018-06-16T14:00:45.294Z,29.40
2018-06-16T14:02:21.834Z,29.42
2018-06-16T14:03:57.415Z,29.40
2018-06-16T14:05:33.771Z,29.14
2018-06-16T14:07:09.411Z,29.11
2018-06-16T14:08:44.942Z,28.77
2018-06-16T14:10:22.260Z,29.19
2018-06-16T14:11:58.514Z,29.26
2018-06-16T14:13:35.177Z,29.10
2018-06-16T14:15:11.836Z,29.04
2018-06-16T14:16:48.346Z,29.02
2018-06-16T14:18:24.837Z,29.17
2018-06-16T14:20:04.711Z,29.10
2018-06-16T14:21:40.721Z,28.93
2018-06-16T14:23:16.254Z,29.00
2018-06-16T14:24:53.576Z,28.97
2018-06-16T14:26:31.056Z,29.00
2018-06-16T14:28:06.792Z,29.06
2018-06-16T14:29:42.483Z,29.13
2018-06-16T14:31:18.758Z,29.05
2018-06-16T14:32:54.600Z,29.31
2018-06-16T14:34:31.189Z,29.37
2018-06-16T14:36:07.916Z,29.13
2018-06-16T14:37:44.207Z,29.02
2018-06-16T14:39:19.799Z,29.17
2018-06-16T14:40:55.866Z,29.40
2018-06-16T14:42:31.957Z,29.23
2018-06-16T14:44:07.519Z,29.35
2018-06-16T14:45:43.069Z,29.54
2018-06-16T14:47:19.185Z,29.57
2018-06-16T14:48:54.847Z,29.71
2018-06-16T14:50:34.240Z,29.72
2018-06-16T14:52:11.462Z,29.65
2018-06-16T14:53:47.098Z,29.60
2018-06-16T14:55:23.668Z,29.55
2018-06-16T14:56:59.229Z,29.50
2018-06-16T14:58:35.145Z,29.08
2018-06-16T15:00:11.327Z,29.15
2018-06-16T15:01:46.985Z,29.31
2018-06-16T15:03:22.584Z,29.37
2018-06-16T15:04:58.224Z,28.87
2018-06-16T15:06:33.827Z,28.90
2018-06-16T15:08:09.462Z,29.30
2018-06-16T15:09:45.279Z,29.54
2018-06-16T15:11:20.835Z,29.63
2018-06-16T15:12:56.397Z,29.72
2018-06-16T15:16:37.931Z,29.74
2018-06-16T15:18:13.523Z,29.76
2018-06-16T15:19:49.158Z,29.82
2018-06-16T15:21:24.749Z,29.86
2018-06-16T15:23:00.372Z,30.00
2018-06-16T15:24:35.981Z,29.94
2018-06-16T15:26:11.494Z,29.96
2018-06-16T15:27:47.004Z,29.89
2018-06-16T15:29:23.238Z,29.23
2018-06-16T15:30:59.844Z,28.87
2018-06-16T15:32:35.417Z,28.86
2018-06-16T15:34:11.199Z,29.21
2018-06-16T15:35:46.756Z,29.11
2018-06-16T15:37:22.585Z,29.08
2018-06-16T15:38:58.318Z,29.21
2018-06-16T15:40:33.961Z,29.31
2018-06-16T15:42:10.286Z,29.37
2018-06-16T15:43:57.323Z,29.40
2018-06-16T15:45:37.138Z,29.29
2018-06-16T15:51:30.695Z,28.96
2018-06-16T15:53:07.850Z,29.20
2018-06-16T15:54:43.498Z,29.48
2018-06-16T15:56:19.116Z,29.60
2018-06-16T15:57:54.869Z,29.58
2018-06-16T15:59:30.565Z,29.54
2018-06-16T16:01:07.679Z,29.45
2018-06-16T16:02:45.121Z,29.57
2018-06-16T16:04:23.647Z,29.57
2018-06-16T16:05:59.221Z,29.45
2018-06-16T16:07:36.440Z,29.26
2018-06-16T16:09:12.095Z,29.37
2018-06-16T16:10:48.218Z,29.57
2018-06-16T16:12:24.056Z,29.39
2018-06-16T16:13:59.735Z,29.41
2018-06-16T16:15:35.316Z,29.42
2018-06-16T16:17:10.922Z,29.58
2018-06-16T16:18:46.684Z,29.53
2018-06-16T16:20:26.176Z,29.38
2018-06-16T16:22:03.300Z,29.28
2018-06-16T16:23:40.207Z,29.31
2018-06-16T16:25:21.566Z,29.42
2018-06-16T16:27:01.322Z,29.57
2018-06-16T16:28:52.452Z,29.57
2018-06-16T16:30:43.773Z,28.93
2018-06-16T16:32:22.282Z,28.85
2018-06-16T16:34:00.019Z,28.85
2018-06-16T16:35:39.251Z,28.81
2018-06-16T16:37:15.062Z,28.49
2018-06-16T16:38:51.500Z,28.45
2018-06-16T16:40:27.170Z,28.38
2018-06-16T16:42:02.761Z,28.38
2018-06-16T16:43:38.313Z,28.29
2018-06-16T16:45:14.278Z,28.20
2018-06-16T16:46:49.933Z,28.21
2018-06-16T16:48:25.490Z,28.01
2018-06-16T16:50:01.289Z,27.91
2018-06-16T16:51:38.921Z,27.92
2018-06-16T16:53:14.429Z,27.87
2018-06-16T16:54:50.988Z,27.83
2018-06-16T16:56:26.559Z,27.73
2018-06-16T16:58:02.113Z,27.69
2018-06-16T16:59:37.768Z,27.75
2018-06-16T17:01:14.384Z,27.65
2018-06-16T17:02:49.981Z,27.61
2018-06-16T17:04:25.719Z,27.57
2018-06-16T17:06:01.321Z,27.49
2018-06-16T17:07:37.407Z,27.32
2018-06-16T17:09:13.170Z,27.16
2018-06-16T17:10:48.730Z,27.14
2018-06-16T17:12:24.265Z,27.08
2018-06-16T17:13:59.884Z,26.97
2018-06-16T17:15:36.110Z,26.99
2018-06-16T17:17:11.688Z,26.96
2018-06-16T17:18:49.561Z,26.90
2018-06-16T17:20:25.160Z,26.75
2018-06-16T17:22:01.170Z,26.61
2018-06-16T17:23:37.644Z,26.50
2018-06-16T17:25:14.071Z,26.43
2018-06-16T17:26:49.734Z,26.36
2018-06-16T17:28:25.309Z,26.24
2018-06-16T17:30:01.277Z,26.13
2018-06-16T17:31:37.232Z,26.01
2018-06-16T17:33:13.665Z,25.81
2018-06-16T17:34:49.837Z,25.75
2018-06-16T17:36:28.675Z,25.82
2018-06-16T17:38:08.748Z,25.73
2018-06-16T17:39:59.497Z,25.70
2018-06-16T17:42:06.110Z,25.60
2018-06-16T17:43:55.682Z,25.50
2018-06-16T17:45:34.801Z,25.48
2018-06-16T17:47:14.076Z,25.40
2018-06-16T17:48:57.821Z,25.30
2018-06-16T17:50:34.072Z,25.23
2018-06-16T17:52:11.600Z,25.13
2018-06-16T17:53:58.034Z,25.11
2018-06-16T17:55:41.323Z,25.03
2018-06-16T17:57:38.704Z,25.08
2018-06-16T17:59:34.281Z,25.01
2018-06-16T18:01:29.771Z,24.91
2018-06-16T18:03:16.531Z,24.86
2018-06-16T18:04:52.623Z,24.86
2018-06-16T18:06:33.114Z,24.78
2018-06-16T18:08:09.517Z,24.79
2018-06-16T18:09:48.174Z,24.82
2018-06-16T18:11:24.771Z,24.78
2018-06-16T18:13:04.103Z,24.72
2018-06-16T18:14:46.907Z,24.70
2018-06-16T18:16:32.742Z,24.68
2018-06-16T18:18:27.249Z,24.61
2018-06-16T18:20:17.915Z,24.59
2018-06-16T18:21:56.621Z,24.56
2018-06-16T18:23:33.632Z,24.49
2018-06-16T18:25:09.409Z,24.59
2018-06-16T18:26:54.327Z,24.64
2018-06-16T18:28:37.314Z,24.60
2018-06-16T18:30:31.351Z,24.60
2018-06-16T18:32:08.526Z,24.58
2018-06-16T18:33:45.414Z,24.48
2018-06-16T18:35:20.988Z,24.51
2018-06-16T18:37:05.882Z,24.60
2018-06-16T18:38:42.008Z,24.56
2018-06-16T18:40:20.874Z,24.45
2018-06-16T18:41:57.440Z,24.38
2018-06-16T18:43:33.922Z,24.29
2018-06-16T18:45:10.552Z,24.15
2018-06-16T18:46:48.137Z,24.07
2018-06-16T18:48:46.547Z,24.14
2018-06-16T18:50:38.273Z,24.04
2018-06-16T18:52:23.771Z,23.90
2018-06-16T18:54:04.556Z,23.83
2018-06-16T18:55:44.995Z,23.75
2018-06-16T18:57:27.993Z,23.68
2018-06-16T18:59:05.234Z,23.70
2018-06-16T19:00:42.602Z,23.62
2018-06-16T19:02:19.969Z,23.62
2018-06-16T19:03:56.254Z,23.66
2018-06-16T19:05:31.873Z,23.82
2018-06-16T19:07:08.146Z,23.76
2018-06-16T19:09:00.788Z,23.90
2018-06-16T19:10:40.861Z,23.78
2018-06-16T19:12:29.874Z,23.85
2018-06-16T19:16:09.161Z,23.79
2018-06-16T19:17:54.646Z,23.75
2018-06-16T19:19:33.331Z,23.68
2018-06-16T19:21:12.447Z,23.76
2018-06-16T19:22:48.774Z,23.75
2018-06-16T19:24:33.000Z,23.67
2018-06-16T19:26:12.692Z,23.45
2018-06-16T19:27:56.456Z,23.33
2018-06-16T19:29:33.145Z,23.51
2018-06-16T19:31:08.946Z,23.35
2018-06-16T19:32:45.628Z,23.30
2018-06-16T19:34:22.513Z,23.30
2018-06-16T19:35:58.400Z,23.24
2018-06-16T19:37:34.370Z,23.15
2018-06-16T19:39:17.681Z,23.10
2018-06-16T19:40:53.720Z,23.16
2018-06-16T19:42:29.306Z,23.08
2018-06-16T19:44:14.869Z,23.21
2018-06-16T19:45:50.754Z,23.19
2018-06-16T19:47:26.541Z,23.13
2018-06-16T19:49:02.114Z,23.02
2018-06-16T19:50:38.280Z,22.94
2018-06-16T19:52:14.785Z,23.00
2018-06-16T19:53:50.744Z,23.02
2018-06-16T19:55:26.548Z,23.02
2018-06-16T19:57:02.190Z,23.05
2018-06-16T19:58:38.101Z,23.10
2018-06-16T20:00:14.211Z,23.06
2018-06-16T20:01:51.457Z,23.04
2018-06-16T20:03:27.395Z,23.04
2018-06-16T20:05:04.133Z,22.97
2018-06-16T20:06:43.122Z,22.88
2018-06-16T20:08:18.723Z,22.99
2018-06-16T20:09:54.409Z,22.96
2018-06-16T20:11:30.095Z,22.94
2018-06-16T20:13:05.870Z,22.95
2018-06-16T20:14:43.178Z,22.90
2018-06-16T20:16:18.817Z,22.94
2018-06-16T20:17:54.368Z,22.88
2018-06-16T20:19:29.949Z,22.79
2018-06-16T20:21:05.566Z,22.85
2018-06-16T20:22:41.101Z,22.78
2018-06-16T20:24:18.526Z,22.80
2018-06-16T20:25:54.161Z,22.88
2018-06-16T20:27:31.471Z,22.88
2018-06-16T20:29:07.025Z,22.85
2018-06-16T20:30:42.574Z,22.79
2018-06-16T20:32:18.129Z,22.68
2018-06-16T20:33:53.729Z,22.65
2018-06-16T20:35:29.326Z,22.66
2018-06-16T20:37:04.903Z,22.51
2018-06-16T20:38:40.461Z,22.48
2018-06-16T20:40:16.021Z,22.45
2018-06-16T20:41:51.612Z,22.42
2018-06-16T20:43:27.233Z,22.34
2018-06-16T20:45:02.815Z,22.32
2018-06-16T20:46:38.385Z,22.36
2018-06-16T20:48:13.928Z,22.37
2018-06-16T20:49:49.715Z,22.33
2018-06-16T20:51:25.293Z,22.39
2018-06-16T20:53:01.363Z,22.39
2018-06-16T20:54:36.964Z,22.45
2018-06-16T20:56:12.493Z,22.29
2018-06-16T20:57:48.140Z,22.27
2018-06-16T20:59:24.140Z,22.33
2018-06-16T21:00:59.696Z,22.29
2018-06-16T21:02:35.455Z,22.25
2018-06-16T21:04:11.006Z,22.23
2018-06-16T21:05:46.582Z,22.23
2018-06-16T21:07:22.293Z,22.17
2018-06-16T21:15:14.814Z,22.00
2018-06-16T21:16:50.373Z,21.93